Time;durP1;ratioP1;P1;durP2;ratioP2;P2;SDS_P1;SDS_P2;PMS_P1;PMS_P2;Temp;Humidity;BMP_temperature;BMP_pressure;BME280_temperature;BME280_humidity;BME280_pressure;Samples;Min_cycle;Max_cycle;Signal;HPM_P1;HPM_P2
2023/09/03 00:00:23;;;;;;;5.93;4.72;;;;;;;23.70;56.14;98667.38;5047760;28;20216;-59
2023/09/03 00:02:48;;;;;;;5.03;4.60;;;;;;;23.53;56.33;98652.69;5027795;28;20259;-59
2023/09/03 00:05:13;;;;;;;4.75;4.32;;;;;;;23.65;56.11;98655.72;5028384;28;20691;-59
2023/09/03 00:07:39;;;;;;;4.28;3.88;;;;;;;23.77;55.97;98670.13;5028027;28;20194;-59
2023/09/03 00:10:05;;;;;;;5.05;4.43;;;;;;;23.63;56.31;98663.00;5027750;28;20233;-60
2023/09/03 00:12:30;;;;;;;5.07;4.13;;;;;;;23.39;56.29;98623.63;5028018;28;20776;-59
2023/09/03 00:14:55;;;;;;;7.57;4.18;;;;;;;23.60;56.51;98660.72;5028112;28;20182;-59
2023/09/03 00:17:21;;;;;;;4.82;4.32;;;;;;;23.54;56.52;98659.63;5027982;28;20568;-60
2023/09/03 00:19:46;;;;;;;5.10;3.95;;;;;;;23.55;56.61;98660.44;5027712;28;20229;-58
2023/09/03 00:22:12;;;;;;;4.32;3.92;;;;;;;23.33;57.27;98645.47;5029894;28;20348;-58
2023/09/03 00:24:37;;;;;;;5.80;4.43;;;;;;;23.46;57.03;98662.34;5031373;28;20564;-58
2023/09/03 00:27:03;;;;;;;5.80;4.35;;;;;;;23.52;56.76;98663.44;5031394;28;20213;-58
2023/09/03 00:29:29;;;;;;;5.63;4.63;;;;;;;23.25;57.17;98624.44;5031017;28;20213;-58
2023/09/03 00:31:55;;;;;;;4.43;3.55;;;;;;;23.23;58.10;98643.09;5031237;28;20194;-58
2023/09/03 00:34:20;;;;;;;4.55;3.53;;;;;;;23.28;58.55;98658.38;5031127;28;20186;-58
2023/09/03 00:36:46;;;;;;;3.90;3.50;;;;;;;23.12;58.91;98643.47;5031272;28;20251;-58
2023/09/03 00:39:11;;;;;;;5.38;3.50;;;;;;;23.07;59.27;98623.91;5031031;28;20198;-58
2023/09/03 00:41:36;;;;;;;4.13;3.80;;;;;;;22.97;59.79;98633.88;5031005;28;20556;-59
2023/09/03 00:44:03;;;;;;;3.47;3.17;;;;;;;22.90;60.10;98627.66;5031070;28;20300;-58
2023/09/03 00:46:28;;;;;;;5.43;3.00;;;;;;;23.09;59.92;98649.13;5031055;28;20194;-58
2023/09/03 00:48:54;;;;;;;6.55;3.55;;;;;;;22.90;60.69;98640.88;5031266;28;20263;-59
2023/09/03 00:51:20;;;;;;;3.70;3.40;;;;;;;22.71;61.79;98655.34;5045743;28;20598;-58
2023/09/03 00:53:51;;;;;;;4.38;3.55;;;;;;;22.65;62.02;98660.47;5051106;28;20174;-59
2023/09/03 00:56:16;;;;;;;3.53;3.20;;;;;;;22.78;61.38;98644.91;5050887;28;20184;-59
2023/09/03 00:58:42;;;;;;;4.28;3.70;;;;;;;22.88;60.99;98650.75;5050787;28;20184;-59
2023/09/03 01:01:09;;;;;;;3.55;3.25;;;;;;;22.67;61.51;98627.66;5036931;28;20722;-58
2023/09/03 01:03:35;;;;;;;4.22;3.92;;;;;;;22.50;62.68;98641.94;5033284;28;20178;-59
2023/09/03 01:06:01;;;;;;;6.18;4.00;;;;;;;22.63;62.41;98646.66;5033231;28;20201;-58
2023/09/03 01:08:30;;;;;;;4.60;3.67;;;;;;;22.51;63.28;98642.78;5033562;28;20193;-59
2023/09/03 01:11:09;;;;;;;4.63;3.38;;;;;;;22.49;63.90;98650.03;5033161;28;20213;-59
2023/09/03 01:13:53;;;;;;;4.28;3.88;;;;;;;22.40;64.48;98651.03;5033204;28;20224;-58
2023/09/03 01:16:49;;;;;;;4.55;3.78;;;;;;;22.33;64.81;98637.72;5032992;28;20652;-58
2023/09/03 01:19:48;;;;;;;5.10;4.00;;;;;;;22.46;64.90;98650.38;5030384;28;20192;-58
2023/09/03 01:22:25;;;;;;;4.00;3.63;;;;;;;22.45;64.94;98648.75;5030513;28;20236;-59
2023/09/03 01:24:56;;;;;;;4.47;4.07;;;;;;;22.30;65.66;98639.88;5030452;28;20178;-59
2023/09/03 01:27:23;;;;;;;5.50;3.33;;;;;;;22.48;64.42;98651.84;5030673;28;20186;-59
2023/09/03 01:29:50;;;;;;;4.28;3.90;;;;;;;22.56;62.60;98614.06;5030218;28;20328;-59
2023/09/03 01:32:18;;;;;;;4.45;4.03;;;;;;;22.87;62.12;98641.19;5030231;28;20182;-58
2023/09/03 01:34:45;;;;;;;4.50;4.10;;;;;;;22.77;62.12;98638.81;5030276;28;20285;-59
2023/09/03 01:37:11;;;;;;;5.20;4.13;;;;;;;22.65;62.03;98621.75;5029910;28;20197;-58
2023/09/03 01:39:37;;;;;;;5.00;4.50;;;;;;;22.82;62.21;98646.19;5030014;28;20194;-58
2023/09/03 01:42:02;;;;;;;6.85;3.90;;;;;;;22.74;62.73;98635.69;5030072;28;20653;-58
2023/09/03 01:44:28;;;;;;;6.15;4.05;;;;;;;22.40;64.27;98630.78;5029991;28;20182;-58
2023/09/03 01:47:03;;;;;;;6.53;3.72;;;;;;;22.06;65.64;98632.09;5029961;28;20248;-58
2023/09/03 01:49:40;;;;;;;4.28;3.88;;;;;;;22.04;66.13;98634.09;5033654;28;20212;-58
2023/09/03 01:52:06;;;;;;;3.80;3.47;;;;;;;22.03;66.27;98637.72;5049813;28;20279;-58
2023/09/03 01:54:39;;;;;;;4.90;3.83;;;;;;;21.92;67.34;98627.56;5049618;28;20758;-58
2023/09/03 01:57:18;;;;;;;4.43;3.67;;;;;;;21.68;69.49;98638.16;5049749;28;20197;-57
2023/09/03 01:59:52;;;;;;;5.40;3.88;;;;;;;21.85;68.39;98645.84;5049645;28;20195;-58
2023/09/03 02:02:19;;;;;;;6.65;3.83;;;;;;;22.00;67.82;98649.44;5049473;28;20268;-58
2023/09/03 02:04:45;;;;;;;4.25;3.83;;;;;;;22.11;67.27;98648.22;5049503;28;20673;-58
2023/09/03 02:07:10;;;;;;;4.35;3.60;;;;;;;21.97;67.81;98643.69;5047557;28;20185;-58
2023/09/03 02:09:36;;;;;;;5.03;3.78;;;;;;;21.88;67.66;98616.53;5029236;28;20287;-58
2023/09/03 02:12:02;;;;;;;4.20;3.75;;;;;;;22.09;67.07;98642.31;5029340;28;20680;-58
2023/09/03 02:14:28;;;;;;;5.93;3.53;;;;;;;22.02;67.26;98636.88;5029295;28;20182;-58
2023/09/03 02:16:53;;;;;;;6.50;3.58;;;;;;;22.07;67.29;98639.00;5029351;28;20235;-58
2023/09/03 02:19:19;;;;;;;3.90;3.60;;;;;;;21.89;68.30;98643.69;5029241;28;20247;-58
2023/09/03 02:21:45;;;;;;;4.72;3.72;;;;;;;21.64;69.42;98650.00;5029199;28;20197;-58
2023/09/03 02:24:10;;;;;;;5.75;4.53;;;;;;;21.84;68.26;98654.75;5029261;28;20174;-58
2023/09/03 02:26:41;;;;;;;4.20;3.88;;;;;;;21.40;69.20;98614.00;5031217;28;20277;-58
2023/09/03 02:29:06;;;;;;;5.88;3.92;;;;;;;21.45;69.27;98622.22;5031556;28;20186;-58
2023/09/03 02:31:32;;;;;;;4.25;3.92;;;;;;;21.75;67.44;98629.44;5031696;28;20232;-58
2023/09/03 02:33:57;;;;;;;6.25;4.57;;;;;;;21.81;67.89;98646.34;5028870;28;20194;-58
2023/09/03 02:36:22;;;;;;;5.03;4.00;;;;;;;21.52;68.78;98627.63;5029017;28;20192;-58
2023/09/03 02:38:59;;;;;;;4.22;3.90;;;;;;;21.53;69.12;98639.81;5029021;28;20186;-58
2023/09/03 02:41:24;;;;;;;5.20;4.10;;;;;;;21.60;68.73;98631.06;5028894;28;20186;-58
2023/09/03 02:43:50;;;;;;;7.07;4.20;;;;;;;21.18;70.31;98611.25;5028424;28;20538;-58
2023/09/03 02:46:15;;;;;;;3.88;3.55;;;;;;;21.28;71.02;98636.38;5028823;28;20232;-58
2023/09/03 02:48:40;;;;;;;7.22;4.13;;;;;;;21.27;71.39;98628.69;5028821;28;20323;-58
2023/09/03 02:51:13;;;;;;;5.28;3.95;;;;;;;21.34;70.59;98624.38;5028735;28;20302;-58
2023/09/03 02:53:41;;;;;;;4.18;3.88;;;;;;;21.27;69.14;98605.00;5028671;28;20188;-58
2023/09/03 02:56:06;;;;;;;5.78;4.10;;;;;;;21.37;67.75;98593.28;5028703;28;20189;-57
2023/09/03 02:58:31;;;;;;;4.90;4.40;;;;;;;21.66;66.27;98629.56;5028715;28;20663;-57
2023/09/03 03:01:04;;;;;;;4.78;4.28;;;;;;;21.52;67.24;98614.47;5028519;28;20193;-58
2023/09/03 03:03:29;;;;;;;6.03;4.53;;;;;;;21.59;66.95;98631.22;5028704;28;20177;-58
2023/09/03 03:05:54;;;;;;;5.15;4.30;;;;;;;21.44;66.81;98601.34;5028811;28;20181;-58
2023/09/03 03:08:20;;;;;;;8.35;4.38;;;;;;;21.44;66.42;98599.50;5028664;28;20740;-57
2023/09/03 03:10:45;;;;;;;5.35;4.13;;;;;;;21.81;65.26;98639.28;5032980;28;20228;-57
2023/09/03 03:13:10;;;;;;;4.50;4.05;;;;;;;21.67;64.63;98625.97;5033985;28;20209;-57
2023/09/03 03:15:36;;;;;;;5.15;3.80;;;;;;;21.65;64.49;98627.94;5031015;28;20201;-58
2023/09/03 03:18:01;;;;;;;4.93;4.13;;;;;;;21.60;64.77;98620.53;5030955;28;20173;-58
2023/09/03 03:20:27;;;;;;;5.60;3.83;;;;;;;21.49;67.80;98635.84;5030980;28;20536;-58
2023/09/03 03:22:52;;;;;;;5.57;4.40;;;;;;;21.21;68.03;98611.72;5031010;28;20359;-58
2023/09/03 03:25:18;;;;;;;4.80;3.85;;;;;;;21.25;69.53;98625.38;5030944;28;20260;-58
2023/09/03 03:27:43;;;;;;;4.43;3.95;;;;;;;21.34;68.66;98629.66;5030957;28;20166;-58
2023/09/03 03:30:08;;;;;;;5.25;4.57;;;;;;;21.40;67.55;98650.84;5030766;28;20206;-58
2023/09/03 03:32:34;;;;;;;5.30;4.75;;;;;;;21.25;67.34;98620.09;5031213;28;20626;-58
2023/09/03 03:34:59;;;;;;;5.32;4.63;;;;;;;21.24;67.76;98629.84;5030870;28;20209;-58
2023/09/03 03:37:25;;;;;;;5.18;4.53;;;;;;;20.93;72.05;98614.88;5031157;28;20200;-58
2023/09/03 03:39:50;;;;;;;4.55;4.05;;;;;;;20.90;73.92;98642.34;5030782;28;20616;-58
2023/09/03 03:42:16;;;;;;;6.20;4.53;;;;;;;20.73;74.14;98613.50;5030790;28;20657;-58
2023/09/03 03:44:42;;;;;;;5.18;4.40;;;;;;;20.91;73.13;98622.09;5030779;28;20653;-58
2023/09/03 03:47:07;;;;;;;4.75;4.32;;;;;;;21.13;71.25;98647.75;5030841;28;20180;-57
2023/09/03 03:49:33;;;;;;;5.22;4.03;;;;;;;21.05;70.58;98639.88;5030630;28;20296;-59
2023/09/03 03:51:58;;;;;;;5.55;5.05;;;;;;;20.88;68.73;98631.16;5030762;28;20649;-59
2023/09/03 03:54:24;;;;;;;4.70;4.30;;;;;;;21.12;68.18;98651.38;5030707;28;20639;-59
2023/09/03 03:56:49;;;;;;;6.05;4.40;;;;;;;21.15;67.36;98654.50;5032309;28;20170;-59
2023/09/03 03:59:15;;;;;;;5.93;3.90;;;;;;;20.77;68.73;98609.56;5034671;28;20269;-59
2023/09/03 04:01:40;;;;;;;4.30;3.90;;;;;;;20.85;68.28;98617.47;5031691;28;20680;-59
2023/09/03 04:04:05;;;;;;;6.32;4.55;;;;;;;20.92;67.16;98619.31;5031805;28;20289;-59
2023/09/03 04:06:31;;;;;;;5.85;4.07;;;;;;;21.02;66.67;98632.28;5032155;28;20608;-59
2023/09/03 04:08:56;;;;;;;5.30;4.55;;;;;;;20.85;67.73;98620.94;5031852;28;20213;-59
2023/09/03 04:11:23;;;;;;;4.40;4.00;;;;;;;21.06;66.73;98647.59;5031975;28;20224;-59
2023/09/03 04:13:48;;;;;;;5.35;4.35;;;;;;;21.15;65.19;98643.16;5031647;28;20198;-59
2023/09/03 04:16:17;;;;;;;3.70;3.40;;;;;;;21.15;63.02;98630.81;5031661;28;20682;-59
2023/09/03 04:18:44;;;;;;;5.75;4.13;;;;;;;21.18;63.58;98621.75;5031553;28;20225;-60
2023/09/03 04:21:10;;;;;;;6.30;4.65;;;;;;;21.27;64.00;98621.59;5031552;28;20189;-59
2023/09/03 04:23:35;;;;;;;4.95;4.30;;;;;;;21.33;63.92;98620.91;5031678;28;20178;-58
2023/09/03 04:26:02;;;;;;;4.75;4.35;;;;;;;21.39;63.22;98617.63;5011720;28;20186;-59
2023/09/03 04:28:27;;;;;;;7.38;5.18;;;;;;;21.40;63.22;98610.56;5011686;28;20285;-58
2023/09/03 04:30:59;;;;;;;6.43;4.70;;;;;;;21.45;62.81;98627.47;5011554;28;20337;-58
2023/09/03 04:33:24;;;;;;;5.05;4.55;;;;;;;21.57;62.83;98635.84;5011632;28;20201;-58
2023/09/03 04:35:58;;;;;;;6.45;5.07;;;;;;;21.69;62.96;98645.06;5011525;28;20206;-58
2023/09/03 04:38:24;;;;;;;5.40;4.85;;;;;;;21.72;62.75;98639.44;5015560;28;20194;-58
2023/09/03 04:40:50;;;;;;;5.05;4.43;;;;;;;21.57;62.57;98605.06;5031273;28;20190;-58
2023/09/03 04:43:15;;;;;;;7.05;5.35;;;;;;;21.71;62.16;98629.91;5031251;28;20200;-58
2023/09/03 04:45:48;;;;;;;5.80;4.95;;;;;;;21.93;61.67;98639.72;5031179;28;20193;-59
2023/09/03 04:48:14;;;;;;;9.40;6.35;;;;;;;21.98;62.09;98642.69;5031114;28;20268;-59
2023/09/03 04:50:40;;;;;;;6.43;5.80;;;;;;;21.81;61.86;98602.41;5030947;28;20236;-59
2023/09/03 04:53:06;;;;;;;5.85;5.25;;;;;;;22.04;61.43;98628.81;5031022;28;20205;-59
2023/09/03 04:55:33;;;;;;;7.13;5.70;;;;;;;22.02;61.29;98612.38;5030917;28;20185;-59
2023/09/03 04:57:58;;;;;;;5.70;5.05;;;;;;;22.10;61.01;98613.16;5032747;28;20217;-59
2023/09/03 05:00:24;;;;;;;5.70;4.70;;;;;;;22.06;60.82;98601.28;5033053;28;20182;-59
2023/09/03 05:02:49;;;;;;;7.43;5.53;;;;;;;22.06;60.05;98579.38;5033359;28;20255;-58
2023/09/03 05:05:15;;;;;;;7.28;5.15;;;;;;;22.25;60.05;98611.41;5033225;28;20656;-58
2023/09/03 05:07:40;;;;;;;6.10;5.05;;;;;;;22.29;60.36;98603.97;5032752;28;20228;-58
2023/09/03 05:10:07;;;;;;;7.47;5.05;;;;;;;22.19;59.75;98579.63;5032854;28;20273;-58
2023/09/03 05:12:33;;;;;;;5.30;4.80;;;;;;;22.39;59.85;98607.22;5032785;28;20566;-59
2023/09/03 05:14:58;;;;;;;5.82;5.18;;;;;;;22.38;60.00;98606.38;5033068;28;20169;-58
2023/09/03 05:17:24;;;;;;;6.85;5.55;;;;;;;22.29;60.04;98585.50;5032700;28;20182;-57
2023/09/03 05:19:49;;;;;;;6.35;5.50;;;;;;;22.39;59.81;98580.84;5032656;28;20174;-57
2023/09/03 05:22:15;;;;;;;8.02;5.68;;;;;;;22.49;59.34;98582.28;5032700;28;20185;-58
2023/09/03 05:24:40;;;;;;;7.80;5.72;;;;;;;22.58;59.62;98596.22;5032919;28;20945;-58
2023/09/03 05:27:06;;;;;;;6.88;5.85;;;;;;;22.26;60.46;98567.41;5032907;28;20272;-58
2023/09/03 05:29:31;;;;;;;9.00;6.00;;;;;;;22.26;60.11;98564.78;5032763;28;20202;-58
2023/09/03 05:31:57;;;;;;;5.70;5.13;;;;;;;22.48;59.86;98579.81;5032497;28;20273;-58
2023/09/03 05:34:23;;;;;;;7.03;5.82;;;;;;;22.56;59.36;98590.31;5032777;28;20549;-58
2023/09/03 05:36:49;;;;;;;6.95;5.70;;;;;;;22.61;59.07;98575.59;5032414;28;20629;-59
2023/09/03 05:39:14;;;;;;;8.45;5.53;;;;;;;22.80;58.99;98596.25;5032637;28;20265;-59
2023/09/03 05:41:40;;;;;;;11.35;6.25;;;;;;;22.73;58.99;98581.28;5032306;28;20291;-59
2023/09/03 05:44:09;;;;;;;9.50;5.13;;;;;;;22.86;58.84;98598.19;5032572;28;20201;-59
2023/09/03 05:46:37;;;;;;;6.95;4.72;;;;;;;22.74;58.94;98601.41;5032447;28;20672;-59
2023/09/03 05:49:03;;;;;;;6.45;5.57;;;;;;;22.89;58.63;98604.91;5032312;28;20248;-59
2023/09/03 05:51:29;;;;;;;6.78;5.57;;;;;;;22.87;58.36;98583.97;5032340;28;20273;-59
2023/09/03 05:53:54;;;;;;;6.47;4.60;;;;;;;22.94;58.03;98591.97;5032277;28;20208;-59
2023/09/03 05:56:20;;;;;;;6.07;4.70;;;;;;;22.86;57.82;98570.94;5032261;28;20186;-59
2023/09/03 05:58:45;;;;;;;6.32;5.30;;;;;;;23.06;58.02;98609.88;5032380;28;20170;-59
2023/09/03 06:01:11;;;;;;;7.63;4.72;;;;;;;23.18;57.57;98610.28;5032129;28;20182;-59
2023/09/03 06:03:38;;;;;;;5.53;5.00;;;;;;;23.14;56.88;98578.09;5032075;28;20180;-59
2023/09/03 06:06:10;;;;;;;5.25;4.72;;;;;;;23.38;56.21;98598.22;5032037;28;20260;-60
2023/09/03 06:08:37;;;;;;;5.72;4.95;;;;;;;23.41;56.23;98596.03;5031765;28;20181;-58
2023/09/03 06:11:03;;;;;;;5.63;5.00;;;;;;;23.39;56.18;98594.56;5031826;28;20210;-58
2023/09/03 06:13:30;;;;;;;6.57;4.97;;;;;;;23.32;55.86;98580.44;5031791;28;20833;-58
2023/09/03 06:15:56;;;;;;;6.00;4.47;;;;;;;23.48;55.43;98590.84;5031782;28;20196;-58
2023/09/03 06:18:22;;;;;;;5.32;4.82;;;;;;;23.58;55.46;98605.41;5031294;28;20276;-58
2023/09/03 06:20:48;;;;;;;5.82;5.07;;;;;;;23.54;55.52;98595.41;5031587;28;20205;-58
2023/09/03 06:23:17;;;;;;;5.75;4.82;;;;;;;23.60;55.26;98607.88;5031962;28;20206;-59
2023/09/03 06:25:43;;;;;;;6.40;4.78;;;;;;;23.67;54.87;98599.06;5031540;28;20181;-59
2023/09/03 06:28:09;;;;;;;5.90;4.78;;;;;;;23.81;54.87;98604.31;5031573;28;20652;-59
2023/09/03 06:30:34;;;;;;;5.30;4.65;;;;;;;23.98;54.32;98620.00;5031349;28;20215;-59
2023/09/03 06:33:00;;;;;;;6.63;5.03;;;;;;;23.94;54.46;98598.41;5031437;28;20174;-59
2023/09/03 06:35:25;;;;;;;5.05;4.25;;;;;;;24.06;53.35;98604.06;5031470;28;20605;-59
2023/09/03 06:37:50;;;;;;;4.75;4.20;;;;;;;24.38;52.92;98638.84;5031513;28;20180;-59
2023/09/03 06:40:16;;;;;;;7.05;4.70;;;;;;;24.47;53.08;98643.81;5031360;28;20181;-59
2023/09/03 06:42:42;;;;;;;4.40;4.00;;;;;;;24.25;53.44;98634.19;5031343;28;20205;-59
2023/09/03 06:45:08;;;;;;;6.82;4.68;;;;;;;24.29;53.26;98609.03;5031262;28;20308;-59
2023/09/03 06:47:33;;;;;;;5.97;4.55;;;;;;;24.56;53.00;98624.16;5030892;28;20532;-59
2023/09/03 06:49:59;;;;;;;5.50;4.50;;;;;;;24.63;53.04;98621.63;5031121;28;20197;-59
2023/09/03 06:52:24;;;;;;;5.20;4.55;;;;;;;24.95;54.54;98645.78;5030905;28;20166;-57
2023/09/03 06:54:50;;;;;;;5.30;4.45;;;;;;;24.88;55.29;98610.47;5028459;28;20185;-58
2023/09/03 06:57:16;;;;;;;4.53;4.05;;;;;;;25.14;56.08;98620.47;5028697;28;20245;-59
2023/09/03 06:59:41;;;;;;;5.78;4.55;;;;;;;25.37;55.67;98629.84;5028572;28;20198;-59
2023/09/03 07:02:08;;;;;;;5.10;4.20;;;;;;;25.40;53.25;98620.69;5028610;28;20219;-59
2023/09/03 07:04:36;;;;;;;5.88;3.85;;;;;;;25.49;53.23;98624.84;5028540;28;20191;-59
2023/09/03 07:07:04;;;;;;;4.80;4.35;;;;;;;25.75;53.86;98630.31;5028417;28;20328;-59
2023/09/03 07:09:32;;;;;;;6.85;4.88;;;;;;;25.95;54.35;98637.38;5028249;28;20731;-59
2023/09/03 07:11:58;;;;;;;5.63;5.03;;;;;;;26.07;56.14;98621.75;5028395;28;20655;-59
2023/09/03 07:14:24;;;;;;;5.20;4.70;;;;;;;26.21;56.68;98613.66;5028430;28;20193;-58
2023/09/03 07:16:49;;;;;;;8.52;4.78;;;;;;;26.34;56.48;98618.16;5028503;28;20182;-58
2023/09/03 07:19:14;;;;;;;8.43;5.05;;;;;;;26.43;56.19;98611.66;5028416;28;20261;-58
2023/09/03 07:21:40;;;;;;;6.95;4.97;;;;;;;26.68;55.36;98640.16;5028466;28;20647;-58
2023/09/03 07:24:06;;;;;;;5.75;4.88;;;;;;;26.76;55.09;98626.69;5028356;28;20178;-58
2023/09/03 07:26:31;;;;;;;5.95;5.22;;;;;;;26.81;54.99;98618.09;5030034;28;20584;-57
2023/09/03 07:28:56;;;;;;;4.93;4.53;;;;;;;27.00;54.56;98634.06;5030711;28;20540;-58
2023/09/03 07:31:22;;;;;;;5.28;4.40;;;;;;;27.00;54.35;98627.94;5033334;28;20201;-59
2023/09/03 07:33:48;;;;;;;4.53;4.13;;;;;;;27.00;54.53;98615.47;5034846;28;20713;-59
2023/09/03 07:36:13;;;;;;;5.32;4.20;;;;;;;27.17;53.83;98629.22;5034819;28;20572;-59
2023/09/03 07:38:38;;;;;;;5.15;4.65;;;;;;;27.19;53.22;98614.72;5034795;28;20582;-59
2023/09/03 07:41:04;;;;;;;5.45;4.55;;;;;;;27.31;52.98;98626.34;5034673;28;20184;-58
2023/09/03 07:43:29;;;;;;;5.18;4.60;;;;;;;27.37;52.35;98630.84;5034677;28;20614;-59
2023/09/03 07:45:55;;;;;;;8.70;4.82;;;;;;;26.93;53.21;98601.38;5034595;28;20181;-59
2023/09/03 07:48:21;;;;;;;6.47;4.25;;;;;;;27.23;53.29;98629.19;5034585;28;20546;-59
2023/09/03 07:50:47;;;;;;;5.80;4.55;;;;;;;27.22;53.16;98616.94;5034470;28;20726;-59
2023/09/03 07:53:12;;;;;;;6.93;4.80;;;;;;;27.47;53.32;98635.75;5034362;28;20174;-59
2023/09/03 07:55:38;;;;;;;5.32;4.82;;;;;;;27.41;53.73;98620.63;5031723;28;20299;-59
2023/09/03 07:58:05;;;;;;;7.88;4.90;;;;;;;27.41;54.00;98604.66;5031856;28;20291;-59
2023/09/03 08:00:30;;;;;;;5.75;4.40;;;;;;;27.53;53.38;98625.09;5031815;28;20622;-59
2023/09/03 08:02:55;;;;;;;8.07;4.82;;;;;;;27.55;53.00;98607.09;5031765;28;20173;-59
2023/09/03 08:05:22;;;;;;;5.00;4.60;;;;;;;27.64;52.44;98615.69;5031745;28;20193;-59
2023/09/03 08:07:47;;;;;;;4.43;4.03;;;;;;;27.72;51.90;98618.09;5031706;28;20193;-59
2023/09/03 08:10:13;;;;;;;11.18;5.53;;;;;;;27.62;51.90;98607.91;5031320;28;20233;-59
2023/09/03 08:12:38;;;;;;;5.32;4.72;;;;;;;27.66;52.19;98603.81;5031618;28;20320;-59
2023/09/03 08:15:04;;;;;;;6.80;4.88;;;;;;;27.90;52.40;98639.56;5031529;28;20197;-58
2023/09/03 08:17:31;;;;;;;7.07;4.57;;;;;;;27.95;51.88;98637.94;5031583;28;20182;-59
2023/09/03 08:19:56;;;;;;;5.50;4.53;;;;;;;27.84;50.21;98611.13;5031429;28;20193;-59
2023/09/03 08:22:22;;;;;;;5.03;3.92;;;;;;;28.07;50.04;98638.91;5031356;28;20252;-59
2023/09/03 08:24:47;;;;;;;6.13;3.40;;;;;;;27.92;49.18;98595.78;5031389;28;20192;-59
2023/09/03 08:27:14;;;;;;;6.20;3.78;;;;;;;28.23;47.34;98641.09;5032909;28;20189;-59
2023/09/03 08:29:39;;;;;;;5.32;3.33;;;;;;;28.36;46.21;98638.38;5033629;28;20676;-59
2023/09/03 08:32:05;;;;;;;4.45;3.35;;;;;;;28.20;47.40;98606.09;5033713;28;20236;-59
2023/09/03 08:34:30;;;;;;;9.32;4.90;;;;;;;28.38;47.68;98636.34;5033705;28;20189;-59
2023/09/03 08:36:56;;;;;;;4.28;3.50;;;;;;;28.24;47.39;98609.97;5033315;28;20169;-59
2023/09/03 08:39:21;;;;;;;8.00;4.40;;;;;;;28.15;47.49;98600.63;5033642;28;20213;-59
2023/09/03 08:41:47;;;;;;;4.15;3.30;;;;;;;28.35;46.08;98626.13;5032958;28;20247;-59
2023/09/03 08:44:22;;;;;;;3.85;3.45;;;;;;;28.35;45.74;98618.13;5033513;28;20268;-59
2023/09/03 08:46:51;;;;;;;6.38;3.30;;;;;;;28.34;45.60;98607.69;5033496;28;20216;-59
2023/09/03 08:49:17;;;;;;;4.10;3.58;;;;;;;28.37;45.36;98596.63;5033369;28;20390;-59
2023/09/03 08:51:43;;;;;;;5.63;3.53;;;;;;;28.49;44.87;98605.56;5033628;28;20620;-59
2023/09/03 08:54:11;;;;;;;4.55;4.00;;;;;;;28.60;44.58;98613.72;5033281;28;20212;-59
2023/09/03 08:56:36;;;;;;;5.68;3.45;;;;;;;28.61;43.51;98610.00;5033294;28;20269;-58
2023/09/03 08:59:01;;;;;;;5.35;3.65;;;;;;;28.49;43.78;98584.25;5032898;28;20181;-58
2023/09/03 09:01:30;;;;;;;7.03;3.35;;;;;;;28.60;43.03;98591.56;5033223;28;20188;-58
2023/09/03 09:04:00;;;;;;;3.55;3.25;;;;;;;28.69;42.69;98601.75;5032887;28;20605;-58
2023/09/03 09:06:27;;;;;;;4.03;3.13;;;;;;;28.61;41.80;98575.38;5033206;28;20186;-58
2023/09/03 09:08:53;;;;;;;4.45;3.42;;;;;;;28.74;40.14;98603.78;5033055;28;20277;-58
2023/09/03 09:11:19;;;;;;;4.78;3.72;;;;;;;28.71;40.82;98583.72;5033108;28;20368;-58
2023/09/03 09:13:55;;;;;;;6.75;3.00;;;;;;;28.93;38.40;98598.28;5032880;28;20665;-58
2023/09/03 09:16:21;;;;;;;4.55;3.08;;;;;;;28.88;39.29;98574.19;5032982;28;20307;-58
2023/09/03 09:18:46;;;;;;;3.78;3.05;;;;;;;29.07;38.63;98583.06;5032826;28;20179;-58
2023/09/03 09:21:12;;;;;;;6.20;3.17;;;;;;;29.00;38.83;98561.81;5032493;28;20204;-58
2023/09/03 09:23:37;;;;;;;6.10;2.70;;;;;;;29.18;39.02;98585.84;5032780;28;20173;-58
2023/09/03 09:26:15;;;;;;;4.40;3.28;;;;;;;29.19;39.13;98573.31;5032985;28;20177;-58
2023/09/03 09:29:04;;;;;;;5.53;3.20;;;;;;;29.34;39.50;98595.97;5030055;28;20185;-58
2023/09/03 09:31:31;;;;;;;4.65;2.90;;;;;;;29.40;35.87;98589.75;5029992;28;20264;-58
2023/09/03 09:33:58;;;;;;;3.65;2.72;;;;;;;29.26;35.07;98571.44;5030092;28;20281;-58
2023/09/03 09:36:24;;;;;;;6.25;2.88;;;;;;;29.35;34.51;98581.59;5030017;28;20323;-58
2023/09/03 09:38:50;;;;;;;2.92;2.60;;;;;;;29.54;34.83;98591.28;5030037;28;20284;-58
2023/09/03 09:41:25;;;;;;;7.45;2.95;;;;;;;29.66;35.10;98589.50;5030008;28;20177;-58
2023/09/03 09:43:51;;;;;;;3.00;2.80;;;;;;;29.66;34.97;98588.66;5029874;28;20216;-58
2023/09/03 09:46:30;;;;;;;3.58;2.45;;;;;;;29.50;34.94;98559.91;5029835;28;20680;-58
2023/09/03 09:49:00;;;;;;;3.35;2.50;;;;;;;29.57;33.42;98577.47;5029770;28;20516;-58
2023/09/03 09:51:27;;;;;;;6.60;2.80;;;;;;;29.61;34.16;98576.00;5029787;28;20252;-58
2023/09/03 09:53:57;;;;;;;3.97;2.53;;;;;;;29.50;34.27;98567.91;5029663;28;20194;-58
2023/09/03 09:56:31;;;;;;;2.83;2.53;;;;;;;29.57;34.67;98568.69;5029736;28;20247;-58
2023/09/03 09:58:58;;;;;;;4.03;2.78;;;;;;;29.52;34.07;98536.47;5030122;28;20653;-58
2023/09/03 10:01:25;;;;;;;4.82;2.70;;;;;;;29.70;34.53;98549.84;5031940;28;20173;-58
2023/09/03 10:03:51;;;;;;;3.33;2.75;;;;;;;29.84;33.69;98536.13;5032003;28;20273;-58
2023/09/03 10:06:19;;;;;;;3.03;2.75;;;;;;;30.13;32.81;98559.41;5031677;28;21003;-58
2023/09/03 10:08:45;;;;;;;3.25;2.50;;;;;;;30.18;33.30;98548.03;5031849;28;20186;-58
2023/09/03 10:11:11;;;;;;;6.90;2.92;;;;;;;30.28;33.30;98541.13;5031819;28;20515;-58
2023/09/03 10:13:42;;;;;;;5.20;2.75;;;;;;;30.26;32.66;98516.50;5031864;28;20170;-59
2023/09/03 10:16:09;;;;;;;3.05;2.75;;;;;;;30.29;32.31;98515.22;5031824;28;20177;-60
2023/09/03 10:18:46;;;;;;;3.22;2.72;;;;;;;30.57;31.92;98545.66;5031704;28;20178;-59
2023/09/03 10:21:13;;;;;;;4.05;2.65;;;;;;;30.48;31.33;98528.31;5031716;28;20166;-58
2023/09/03 10:23:50;;;;;;;2.45;2.25;;;;;;;30.58;31.91;98530.41;5031623;28;20178;-58
2023/09/03 10:26:24;;;;;;;2.88;2.67;;;;;;;30.74;30.88;98530.63;5031492;28;20271;-58
2023/09/03 10:28:55;;;;;;;2.60;2.40;;;;;;;30.80;30.25;98524.34;5031598;28;20673;-58
2023/09/03 10:31:23;;;;;;;4.80;2.67;;;;;;;30.90;29.88;98521.91;5031494;28;20241;-58
2023/09/03 10:33:49;;;;;;;4.07;2.70;;;;;;;31.00;30.08;98524.81;5048552;28;20195;-58
2023/09/03 10:36:15;;;;;;;20.40;9.27;;;;;;;31.05;29.43;98540.97;5048795;28;20264;-58
2023/09/03 10:38:41;;;;;;;35.60;17.30;;;;;;;31.06;29.32;98521.22;5048770;28;20189;-59
2023/09/03 10:41:16;;;;;;;3.13;2.90;;;;;;;31.17;29.45;98504.34;5048762;28;20639;-58
2023/09/03 10:43:41;;;;;;;5.00;2.63;;;;;;;31.30;29.38;98504.13;5048689;28;20188;-58
2023/09/03 10:46:07;;;;;;;6.43;2.83;;;;;;;31.64;29.17;98522.00;5048919;28;20183;-58
2023/09/03 10:48:36;;;;;;;2.55;2.30;;;;;;;31.80;29.25;98505.25;5048621;28;20197;-58
2023/09/03 10:51:02;;;;;;;2.60;2.33;;;;;;;32.19;28.92;98543.75;5048331;28;20224;-58
2023/09/03 10:53:41;;;;;;;2.42;2.22;;;;;;;32.37;28.20;98538.22;5048482;28;20197;-58
2023/09/03 10:56:17;;;;;;;2.40;2.30;;;;;;;32.35;28.32;98500.97;5048471;28;20284;-58
2023/09/03 10:58:57;;;;;;;2.72;2.40;;;;;;;32.59;27.89;98523.88;5048422;28;20189;-58
2023/09/03 11:01:33;;;;;;;2.53;2.33;;;;;;;32.70;27.69;98522.22;5048270;28;20180;-59
2023/09/03 11:04:03;;;;;;;5.00;2.45;;;;;;;32.76;27.81;98511.34;5045756;28;20185;-58
2023/09/03 11:06:32;;;;;;;6.82;2.83;;;;;;;32.97;27.52;98517.84;5030424;28;20174;-58
2023/09/03 11:09:01;;;;;;;2.50;2.17;;;;;;;33.11;27.50;98506.53;5030894;28;20201;-59
2023/09/03 11:11:28;;;;;;;2.33;2.22;;;;;;;33.08;27.10;98503.53;5030563;28;20254;-59
2023/09/03 11:13:55;;;;;;;2.97;2.60;;;;;;;32.89;27.03;98473.50;5030940;28;20173;-59
2023/09/03 11:16:32;;;;;;;2.22;2.00;;;;;;;32.75;27.73;98485.56;5030892;28;20609;-59
2023/09/03 11:18:58;;;;;;;4.63;2.45;;;;;;;32.54;27.46;98464.88;5030833;28;20295;-59
2023/09/03 11:21:27;;;;;;;3.65;2.40;;;;;;;32.71;27.79;98488.97;5030859;28;20175;-59
2023/09/03 11:24:14;;;;;;;2.97;2.22;;;;;;;32.77;28.19;98478.09;5030877;28;20178;-59
2023/09/03 11:26:40;;;;;;;2.60;2.30;;;;;;;33.06;27.24;98471.56;5030839;28;20679;-59
2023/09/03 11:29:19;;;;;;;3.65;2.38;;;;;;;33.30;27.51;98477.59;5030804;28;20209;-59
2023/09/03 11:31:48;;;;;;;3.67;2.60;;;;;;;33.49;26.55;98479.72;5030766;28;20268;-59
2023/09/03 11:34:22;;;;;;;3.85;2.30;;;;;;;33.56;26.57;98480.34;5030793;28;20177;-59